sensor_id;sensor_type;location;lat;lon;timestamp;pressure;altitude;pressure_sealevel;temperature;humidity
73455;BME280;61690;51.824;6.306;2023-04-07T00:00:29;101282.47;;;17.52;45.46
73455;BME280;61690;51.824;6.306;2023-04-07T00:02:55;101284.28;;;17.52;45.15
73455;BME280;61690;51.824;6.306;2023-04-07T00:05:21;101283.09;;;17.57;45.50
73455;BME280;61690;51.824;6.306;2023-04-07T00:07:46;101288.44;;;17.56;45.08
73455;BME280;61690;51.824;6.306;2023-04-07T00:10:12;101291.41;;;17.50;44.92
73455;BME280;61690;51.824;6.306;2023-04-07T00:12:40;101285.53;;;17.44;45.32
73455;BME280;61690;51.824;6.306;2023-04-07T00:15:09;101283.66;;;17.47;45.47
73455;BME280;61690;51.824;6.306;2023-04-07T00:17:34;101288.16;;;17.44;45.24
73455;BME280;61690;51.824;6.306;2023-04-07T00:20:00;101287.81;;;17.51;45.30
73455;BME280;61690;51.824;6.306;2023-04-07T00:22:25;101287.31;;;17.44;45.18
73455;BME280;61690;51.824;6.306;2023-04-07T00:24:50;101286.97;;;17.50;45.24
73455;BME280;61690;51.824;6.306;2023-04-07T00:27:16;101283.25;;;17.54;45.03
73455;BME280;61690;51.824;6.306;2023-04-07T00:29:41;101289.78;;;17.47;45.52
73455;BME280;61690;51.824;6.306;2023-04-07T00:32:08;101287.31;;;17.44;45.40
73455;BME280;61690;51.824;6.306;2023-04-07T00:34:34;101293.25;;;17.48;45.41
73455;BME280;61690;51.824;6.306;2023-04-07T00:36:59;101290.56;;;17.49;45.20
73455;BME280;61690;51.824;6.306;2023-04-07T00:39:24;101290.78;;;17.44;45.28
73455;BME280;61690;51.824;6.306;2023-04-07T00:41:51;101289.03;;;17.45;45.50
73455;BME280;61690;51.824;6.306;2023-04-07T00:44:17;101282.66;;;17.49;45.30
73455;BME280;61690;51.824;6.306;2023-04-07T00:46:42;101279.44;;;17.44;45.18
73455;BME280;61690;51.824;6.306;2023-04-07T00:49:09;101282.31;;;17.39;45.28
73455;BME280;61690;51.824;6.306;2023-04-07T00:51:35;101287.41;;;17.42;45.30
73455;BME280;61690;51.824;6.306;2023-04-07T00:54:00;101282.81;;;17.46;45.13
73455;BME280;61690;51.824;6.306;2023-04-07T00:56:26;101289.59;;;17.50;44.80
73455;BME280;61690;51.824;6.306;2023-04-07T00:58:52;101290.22;;;17.39;45.22
73455;BME280;61690;51.824;6.306;2023-04-07T01:01:31;101288.22;;;17.43;44.89
73455;BME280;61690;51.824;6.306;2023-04-07T01:04:04;101293.59;;;17.41;45.45
73455;BME280;61690;51.824;6.306;2023-04-07T01:06:37;101290.09;;;17.41;45.41
73455;BME280;61690;51.824;6.306;2023-04-07T01:09:11;101284.75;;;17.42;45.36
73455;BME280;61690;51.824;6.306;2023-04-07T01:11:48;101287.47;;;17.41;45.45
73455;BME280;61690;51.824;6.306;2023-04-07T01:14:17;101283.91;;;17.42;45.29
73455;BME280;61690;51.824;6.306;2023-04-07T01:16:51;101285.78;;;17.40;45.41
73455;BME280;61690;51.824;6.306;2023-04-07T01:19:39;101285.78;;;17.40;45.05
73455;BME280;61690;51.824;6.306;2023-04-07T01:22:13;101288.56;;;17.37;45.46
73455;BME280;61690;51.824;6.306;2023-04-07T01:25:19;101289.53;;;17.36;45.42
73455;BME280;61690;51.824;6.306;2023-04-07T01:30:30;101286.13;;;17.34;45.40
73455;BME280;61690;51.824;6.306;2023-04-07T01:32:58;101282.75;;;17.32;45.58
73455;BME280;61690;51.824;6.306;2023-04-07T01:35:25;101289.34;;;17.39;45.16
73455;BME280;61690;51.824;6.306;2023-04-07T01:37:53;101283.38;;;17.35;45.02
73455;BME280;61690;51.824;6.306;2023-04-07T01:40:20;101292.31;;;17.33;45.31
73455;BME280;61690;51.824;6.306;2023-04-07T01:42:47;101285.25;;;17.33;45.33
73455;BME280;61690;51.824;6.306;2023-04-07T01:45:15;101291.53;;;17.31;45.14
73455;BME280;61690;51.824;6.306;2023-04-07T01:47:42;101288.16;;;17.29;45.27
73455;BME280;61690;51.824;6.306;2023-04-07T01:50:10;101281.88;;;17.31;45.05
73455;BME280;61690;51.824;6.306;2023-04-07T01:52:37;101286.44;;;17.28;45.36
73455;BME280;61690;51.824;6.306;2023-04-07T01:55:04;101293.56;;;17.25;45.78
73455;BME280;61690;51.824;6.306;2023-04-07T01:57:31;101288.28;;;17.25;45.37
73455;BME280;61690;51.824;6.306;2023-04-07T01:59:57;101289.94;;;17.28;45.51
73455;BME280;61690;51.824;6.306;2023-04-07T02:02:22;101289.25;;;17.24;45.07
73455;BME280;61690;51.824;6.306;2023-04-07T02:04:55;101293.75;;;17.22;45.36
73455;BME280;61690;51.824;6.306;2023-04-07T02:07:38;101301.44;;;17.25;45.42
73455;BME280;61690;51.824;6.306;2023-04-07T02:10:09;101297.97;;;17.25;45.30
73455;BME280;61690;51.824;6.306;2023-04-07T02:12:36;101294.44;;;17.26;45.38
73455;BME280;61690;51.824;6.306;2023-04-07T02:15:02;101299.16;;;17.19;45.57
73455;BME280;61690;51.824;6.306;2023-04-07T02:17:29;101297.13;;;17.24;45.33
73455;BME280;61690;51.824;6.306;2023-04-07T02:19:58;101292.03;;;17.21;45.56
73455;BME280;61690;51.824;6.306;2023-04-07T02:22:27;101297.28;;;17.21;45.09
73455;BME280;61690;51.824;6.306;2023-04-07T02:24:53;101301.63;;;17.22;45.16
73455;BME280;61690;51.824;6.306;2023-04-07T02:27:18;101300.31;;;17.14;45.45
73455;BME280;61690;51.824;6.306;2023-04-07T02:29:45;101290.50;;;17.17;45.43
73455;BME280;61690;51.824;6.306;2023-04-07T02:32:12;101301.63;;;17.22;45.27
73455;BME280;61690;51.824;6.306;2023-04-07T02:34:37;101299.06;;;17.21;45.21
73455;BME280;61690;51.824;6.306;2023-04-07T02:37:02;101298.81;;;17.25;45.49
73455;BME280;61690;51.824;6.306;2023-04-07T02:39:28;101306.13;;;17.20;45.28
73455;BME280;61690;51.824;6.306;2023-04-07T02:41:54;101308.81;;;17.19;45.34
73455;BME280;61690;51.824;6.306;2023-04-07T02:44:19;101311.69;;;17.14;45.20
73455;BME280;61690;51.824;6.306;2023-04-07T02:46:44;101307.97;;;17.18;45.53
73455;BME280;61690;51.824;6.306;2023-04-07T02:49:11;101316.72;;;17.19;45.59
73455;BME280;61690;51.824;6.306;2023-04-07T02:51:36;101313.25;;;17.18;45.52
73455;BME280;61690;51.824;6.306;2023-04-07T02:54:01;101320.34;;;17.16;45.22
73455;BME280;61690;51.824;6.306;2023-04-07T02:56:28;101325.06;;;17.10;45.56
73455;BME280;61690;51.824;6.306;2023-04-07T02:58:53;101327.63;;;17.11;45.54
73455;BME280;61690;51.824;6.306;2023-04-07T03:01:18;101323.13;;;17.13;45.38
73455;BME280;61690;51.824;6.306;2023-04-07T03:03:44;101327.63;;;17.11;45.58
73455;BME280;61690;51.824;6.306;2023-04-07T03:06:11;101325.00;;;17.11;45.66
73455;BME280;61690;51.824;6.306;2023-04-07T03:08:38;101324.66;;;17.17;45.23
73455;BME280;61690;51.824;6.306;2023-04-07T03:11:05;101327.84;;;17.24;45.40
73455;BME280;61690;51.824;6.306;2023-04-07T03:13:30;101322.53;;;17.41;44.72
73455;BME280;61690;51.824;6.306;2023-04-07T03:15:56;101320.06;;;17.54;44.64
73455;BME280;61690;51.824;6.306;2023-04-07T03:18:23;101317.69;;;17.66;44.34
73455;BME280;61690;51.824;6.306;2023-04-07T03:20:49;101318.91;;;17.76;44.27
73455;BME280;61690;51.824;6.306;2023-04-07T03:23:19;101325.38;;;17.86;44.14
73455;BME280;61690;51.824;6.306;2023-04-07T03:25:44;101322.41;;;17.92;44.15
73455;BME280;61690;51.824;6.306;2023-04-07T03:28:15;101321.91;;;18.01;43.81
73455;BME280;61690;51.824;6.306;2023-04-07T03:30:42;101316.28;;;18.08;43.63
73455;BME280;61690;51.824;6.306;2023-04-07T03:33:07;101318.56;;;18.14;43.65
73455;BME280;61690;51.824;6.306;2023-04-07T03:35:33;101317.38;;;18.19;43.66
73455;BME280;61690;51.824;6.306;2023-04-07T03:37:58;101325.03;;;18.24;43.35
73455;BME280;61690;51.824;6.306;2023-04-07T03:40:23;101323.91;;;18.28;43.48
73455;BME280;61690;51.824;6.306;2023-04-07T03:42:48;101326.94;;;18.36;43.23
73455;BME280;61690;51.824;6.306;2023-04-07T03:45:14;101326.69;;;18.41;43.07
73455;BME280;61690;51.824;6.306;2023-04-07T03:47:41;101338.75;;;18.45;43.34
73455;BME280;61690;51.824;6.306;2023-04-07T03:50:07;101339.22;;;18.52;43.08
73455;BME280;61690;51.824;6.306;2023-04-07T03:52:32;101333.78;;;18.55;43.38
73455;BME280;61690;51.824;6.306;2023-04-07T03:54:58;101345.66;;;18.62;42.91
73455;BME280;61690;51.824;6.306;2023-04-07T03:57:25;101343.78;;;18.64;43.07
73455;BME280;61690;51.824;6.306;2023-04-07T03:59:53;101340.03;;;18.68;43.27
73455;BME280;61690;51.824;6.306;2023-04-07T04:02:21;101346.81;;;18.72;42.74
73455;BME280;61690;51.824;6.306;2023-04-07T04:04:46;101344.75;;;18.77;42.67
73455;BME280;61690;51.824;6.306;2023-04-07T04:07:12;101340.16;;;18.81;42.57
73455;BME280;61690;51.824;6.306;2023-04-07T04:09:38;101342.72;;;18.83;42.84
73455;BME280;61690;51.824;6.306;2023-04-07T04:12:03;101345.28;;;18.84;42.83
73455;BME280;61690;51.824;6.306;2023-04-07T04:14:29;101349.69;;;18.84;42.90
73455;BME280;61690;51.824;6.306;2023-04-07T04:16:55;101351.66;;;18.80;42.55
73455;BME280;61690;51.824;6.306;2023-04-07T04:19:20;101351.59;;;18.82;42.90
73455;BME280;61690;51.824;6.306;2023-04-07T04:21:45;101348.16;;;18.79;42.77
73455;BME280;61690;51.824;6.306;2023-04-07T04:24:12;101347.28;;;18.79;42.93
73455;BME280;61690;51.824;6.306;2023-04-07T04:26:39;101346.31;;;18.82;42.54
73455;BME280;61690;51.824;6.306;2023-04-07T04:29:05;101348.66;;;18.86;42.80
73455;BME280;61690;51.824;6.306;2023-04-07T04:31:30;101354.44;;;18.93;42.79
73455;BME280;61690;51.824;6.306;2023-04-07T04:33:55;101350.66;;;18.97;42.42
73455;BME280;61690;51.824;6.306;2023-04-07T04:36:21;101351.97;;;19.04;42.66
73455;BME280;61690;51.824;6.306;2023-04-07T04:38:46;101359.63;;;19.09;42.52
73455;BME280;61690;51.824;6.306;2023-04-07T04:41:11;101355.00;;;19.12;42.54
73455;BME280;61690;51.824;6.306;2023-04-07T04:43:38;101354.81;;;19.15;42.18
73455;BME280;61690;51.824;6.306;2023-04-07T04:46:03;101353.81;;;19.18;42.07
73455;BME280;61690;51.824;6.306;2023-04-07T04:48:28;101354.56;;;19.20;42.15
73455;BME280;61690;51.824;6.306;2023-04-07T04:50:54;101365.66;;;19.25;42.02
73455;BME280;61690;51.824;6.306;2023-04-07T04:53:19;101362.00;;;19.28;42.32
73455;BME280;61690;51.824;6.306;2023-04-07T04:55:44;101360.13;;;19.30;42.15
73455;BME280;61690;51.824;6.306;2023-04-07T04:58:13;101364.25;;;19.34;42.05
73455;BME280;61690;51.824;6.306;2023-04-07T05:00:38;101364.84;;;19.39;41.70
73455;BME280;61690;51.824;6.306;2023-04-07T05:03:04;101375.25;;;19.40;42.19
73455;BME280;61690;51.824;6.306;2023-04-07T05:05:29;101373.50;;;19.41;41.69
73455;BME280;61690;51.824;6.306;2023-04-07T05:07:54;101374.25;;;19.43;42.08
73455;BME280;61690;51.824;6.306;2023-04-07T05:10:20;101375.94;;;19.44;41.92
73455;BME280;61690;51.824;6.306;2023-04-07T05:12:45;101377.81;;;19.42;41.56
73455;BME280;61690;51.824;6.306;2023-04-07T05:15:12;101377.91;;;19.40;41.72
73455;BME280;61690;51.824;6.306;2023-04-07T05:17:39;101384.31;;;19.36;41.74
73455;BME280;61690;51.824;6.306;2023-04-07T05:20:09;101386.19;;;19.34;42.11
73455;BME280;61690;51.824;6.306;2023-04-07T05:22:35;101390.06;;;19.29;42.00
73455;BME280;61690;51.824;6.306;2023-04-07T05:25:00;101385.91;;;19.25;42.02
73455;BME280;61690;51.824;6.306;2023-04-07T05:27:26;101391.38;;;19.22;42.38
73455;BME280;61690;51.824;6.306;2023-04-07T05:29:51;101390.81;;;19.16;42.37
73455;BME280;61690;51.824;6.306;2023-04-07T05:32:17;101390.97;;;19.13;42.49
73455;BME280;61690;51.824;6.306;2023-04-07T05:34:43;101392.09;;;19.09;42.71
73455;BME280;61690;51.824;6.306;2023-04-07T05:37:08;101397.38;;;19.09;42.33
73455;BME280;61690;51.824;6.306;2023-04-07T05:39:35;101396.91;;;19.03;42.64
73455;BME280;61690;51.824;6.306;2023-04-07T05:42:00;101400.94;;;18.94;42.97
73455;BME280;61690;51.824;6.306;2023-04-07T05:44:27;101398.50;;;18.91;43.07
73455;BME280;61690;51.824;6.306;2023-04-07T05:46:54;101402.22;;;18.87;43.09
73455;BME280;61690;51.824;6.306;2023-04-07T05:49:19;101403.25;;;18.84;42.78
73455;BME280;61690;51.824;6.306;2023-04-07T05:51:45;101405.97;;;18.83;42.91
73455;BME280;61690;51.824;6.306;2023-04-07T05:54:12;101405.06;;;18.84;42.89
73455;BME280;61690;51.824;6.306;2023-04-07T05:56:39;101406.31;;;18.76;42.98
73455;BME280;61690;51.824;6.306;2023-04-07T05:59:05;101405.63;;;18.73;43.43
73455;BME280;61690;51.824;6.306;2023-04-07T06:01:33;101410.22;;;18.69;43.52
73455;BME280;61690;51.824;6.306;2023-04-07T06:04:00;101412.03;;;18.69;43.22
73455;BME280;61690;51.824;6.306;2023-04-07T06:06:27;101417.47;;;18.66;43.55
73455;BME280;61690;51.824;6.306;2023-04-07T06:08:53;101418.56;;;18.61;43.37
73455;BME280;61690;51.824;6.306;2023-04-07T06:11:18;101419.69;;;18.57;43.49
73455;BME280;61690;51.824;6.306;2023-04-07T06:13:43;101419.97;;;18.53;43.62
73455;BME280;61690;51.824;6.306;2023-04-07T06:16:09;101424.34;;;18.52;43.70
73455;BME280;61690;51.824;6.306;2023-04-07T06:18:34;101425.22;;;18.53;43.38
73455;BME280;61690;51.824;6.306;2023-04-07T06:20:59;101422.94;;;18.47;43.83
73455;BME280;61690;51.824;6.306;2023-04-07T06:23:25;101428.53;;;18.40;43.94
73455;BME280;61690;51.824;6.306;2023-04-07T06:25:50;101427.97;;;18.35;44.20
73455;BME280;61690;51.824;6.306;2023-04-07T06:28:17;101427.97;;;18.35;44.01
73455;BME280;61690;51.824;6.306;2023-04-07T06:30:42;101436.72;;;18.36;43.98
73455;BME280;61690;51.824;6.306;2023-04-07T06:33:08;101442.22;;;18.31;44.26
73455;BME280;61690;51.824;6.306;2023-04-07T06:35:33;101430.16;;;18.27;44.41
73455;BME280;61690;51.824;6.306;2023-04-07T06:37:58;101436.63;;;18.21;44.36
73455;BME280;61690;51.824;6.306;2023-04-07T06:40:24;101429.75;;;18.19;44.29
73455;BME280;61690;51.824;6.306;2023-04-07T06:42:49;101441.13;;;18.19;44.35
73455;BME280;61690;51.824;6.306;2023-04-07T06:45:15;101448.34;;;18.16;44.46
73455;BME280;61690;51.824;6.306;2023-04-07T06:47:41;101444.78;;;18.17;44.22
73455;BME280;61690;51.824;6.306;2023-04-07T06:50:06;101454.47;;;18.16;43.93
73455;BME280;61690;51.824;6.306;2023-04-07T06:52:33;101449.69;;;18.07;44.14
73455;BME280;61690;51.824;6.306;2023-04-07T06:54:58;101451.56;;;18.05;44.30
73455;BME280;61690;51.824;6.306;2023-04-07T06:57:24;101458.53;;;18.06;44.58
73455;BME280;61690;51.824;6.306;2023-04-07T06:59:49;101452.75;;;17.99;44.28
73455;BME280;61690;51.824;6.306;2023-04-07T07:02:15;101459.81;;;17.99;44.64
73455;BME280;61690;51.824;6.306;2023-04-07T07:04:40;101465.75;;;18.02;44.18
73455;BME280;61690;51.824;6.306;2023-04-07T07:07:05;101465.66;;;18.04;44.64
73455;BME280;61690;51.824;6.306;2023-04-07T07:09:31;101472.97;;;17.99;44.70
73455;BME280;61690;51.824;6.306;2023-04-07T07:11:56;101471.19;;;17.99;44.37
73455;BME280;61690;51.824;6.306;2023-04-07T07:14:21;101465.56;;;18.06;44.08
73455;BME280;61690;51.824;6.306;2023-04-07T07:16:47;101470.41;;;17.97;44.58
73455;BME280;61690;51.824;6.306;2023-04-07T07:19:12;101471.50;;;17.93;44.75
73455;BME280;61690;51.824;6.306;2023-04-07T07:21:38;101473.03;;;17.97;44.73
73455;BME280;61690;51.824;6.306;2023-04-07T07:24:03;101477.78;;;17.91;44.64
73455;BME280;61690;51.824;6.306;2023-04-07T07:26:29;101478.88;;;17.87;44.78
73455;BME280;61690;51.824;6.306;2023-04-07T07:28:54;101485.19;;;17.82;44.80
73455;BME280;61690;51.824;6.306;2023-04-07T07:31:21;101482.63;;;17.81;44.99
73455;BME280;61690;51.824;6.306;2023-04-07T07:33:46;101481.72;;;17.82;44.72
73455;BME280;61690;51.824;6.306;2023-04-07T07:36:13;101485.44;;;17.78;44.81
73455;BME280;61690;51.824;6.306;2023-04-07T07:38:39;101488.09;;;17.78;45.04
73455;BME280;61690;51.824;6.306;2023-04-07T07:41:07;101489.06;;;17.75;44.51
73455;BME280;61690;51.824;6.306;2023-04-07T07:43:33;101491.13;;;17.70;45.25
73455;BME280;61690;51.824;6.306;2023-04-07T07:45:59;101491.00;;;17.72;45.05
73455;BME280;61690;51.824;6.306;2023-04-07T07:48:25;101500.88;;;17.68;45.31
73455;BME280;61690;51.824;6.306;2023-04-07T07:50:50;101504.16;;;17.72;44.87
73455;BME280;61690;51.824;6.306;2023-04-07T07:53:16;101500.69;;;17.71;45.15
73455;BME280;61690;51.824;6.306;2023-04-07T07:55:42;101503.50;;;17.68;44.71
73455;BME280;61690;51.824;6.306;2023-04-07T07:58:07;101502.72;;;17.66;44.95
73455;BME280;61690;51.824;6.306;2023-04-07T08:00:32;101502.72;;;17.66;44.88
73455;BME280;61690;51.824;6.306;2023-04-07T08:02:59;101507.31;;;17.62;44.91
73455;BME280;61690;51.824;6.306;2023-04-07T08:05:25;101508.06;;;17.64;45.22
73455;BME280;61690;51.824;6.306;2023-04-07T08:07:53;101508.22;;;17.61;45.46
73455;BME280;61690;51.824;6.306;2023-04-07T08:10:20;101515.25;;;17.61;45.40
73455;BME280;61690;51.824;6.306;2023-04-07T08:12:47;101519.00;;;17.57;45.37
73455;BME280;61690;51.824;6.306;2023-04-07T08:15:12;101529.41;;;17.58;45.16
73455;BME280;61690;51.824;6.306;2023-04-07T08:17:38;101526.00;;;17.56;45.53
73455;BME280;61690;51.824;6.306;2023-04-07T08:20:05;101526.00;;;17.56;45.09
73455;BME280;61690;51.824;6.306;2023-04-07T08:22:31;101526.09;;;17.55;45.15
73455;BME280;61690;51.824;6.306;2023-04-07T08:24:56;101528.03;;;17.51;45.49
73455;BME280;61690;51.824;6.306;2023-04-07T08:27:22;101530.22;;;17.60;46.61
73455;BME280;61690;51.824;6.306;2023-04-07T08:29:58;101534.69;;;17.76;47.26
73455;BME280;61690;51.824;6.306;2023-04-07T08:32:24;101540.09;;;17.73;47.49
73455;BME280;61690;51.824;6.306;2023-04-07T08:34:54;101547.34;;;17.68;48.12
73455;BME280;61690;51.824;6.306;2023-04-07T08:37:20;101551.72;;;17.69;47.91
73455;BME280;61690;51.824;6.306;2023-04-07T08:39:45;101547.34;;;17.68;48.57
73455;BME280;61690;51.824;6.306;2023-04-07T08:42:11;101548.22;;;17.68;48.74
73455;BME280;61690;51.824;6.306;2023-04-07T08:44:38;101551.78;;;17.67;48.70
73455;BME280;61690;51.824;6.306;2023-04-07T08:47:05;101546.91;;;17.77;48.94
73455;BME280;61690;51.824;6.306;2023-04-07T08:49:32;101548.06;;;17.71;48.93
73455;BME280;61690;51.824;6.306;2023-04-07T08:52:02;101543.88;;;17.67;49.15
73455;BME280;61690;51.824;6.306;2023-04-07T08:54:30;101549.84;;;17.71;49.37
73455;BME280;61690;51.824;6.306;2023-04-07T08:56:58;101552.47;;;17.71;49.43
73455;BME280;61690;51.824;6.306;2023-04-07T08:59:25;101560.44;;;17.69;49.53
73455;BME280;61690;51.824;6.306;2023-04-07T09:01:53;101566.16;;;17.77;49.42
73455;BME280;61690;51.824;6.306;2023-04-07T09:04:19;101558.03;;;17.82;49.50
73455;BME280;61690;51.824;6.306;2023-04-07T09:06:47;101562.84;;;17.74;49.56
73455;BME280;61690;51.824;6.306;2023-04-07T09:09:13;101566.53;;;17.70;49.59
73455;BME280;61690;51.824;6.306;2023-04-07T09:11:39;101569.94;;;17.72;49.50
73455;BME280;61690;51.824;6.306;2023-04-07T09:14:06;101570.13;;;17.69;49.61
73455;BME280;61690;51.824;6.306;2023-04-07T09:16:33;101579.63;;;17.71;49.18
73455;BME280;61690;51.824;6.306;2023-04-07T09:18:59;101573.84;;;17.64;49.57
73455;BME280;61690;51.824;6.306;2023-04-07T09:21:24;101582.34;;;17.70;49.10
73455;BME280;61690;51.824;6.306;2023-04-07T09:23:50;101582.03;;;17.76;48.76
73455;BME280;61690;51.824;6.306;2023-04-07T09:26:25;101593.81;;;17.69;49.00
73455;BME280;61690;51.824;6.306;2023-04-07T09:28:57;101590.31;;;17.68;49.08
73455;BME280;61690;51.824;6.306;2023-04-07T09:31:42;101586.81;;;17.68;49.14
73455;BME280;61690;51.824;6.306;2023-04-07T09:34:41;101587.91;;;17.63;49.18
73455;BME280;61690;51.824;6.306;2023-04-07T09:37:07;101581.75;;;17.64;49.16
73455;BME280;61690;51.824;6.306;2023-04-07T09:39:51;101586.38;;;17.59;49.12
73455;BME280;61690;51.824;6.306;2023-04-07T09:42:21;101589.78;;;17.61;48.62
73455;BME280;61690;51.824;6.306;2023-04-07T09:44:46;101581.88;;;17.61;48.53
73455;BME280;61690;51.824;6.306;2023-04-07T09:47:13;101584.50;;;17.61;49.05
73455;BME280;61690;51.824;6.306;2023-04-07T09:49:49;101581.09;;;17.59;48.63
73455;BME280;61690;51.824;6.306;2023-04-07T09:52:17;101583.75;;;17.59;48.50
73455;BME280;61690;51.824;6.306;2023-04-07T09:54:44;101585.44;;;17.60;48.46
73455;BME280;61690;51.824;6.306;2023-04-07T09:57:12;101584.75;;;17.57;48.87
73455;BME280;61690;51.824;6.306;2023-04-07T09:59:39;101589.13;;;17.56;48.58
73455;BME280;61690;51.824;6.306;2023-04-07T10:02:07;101587.97;;;17.62;48.49
73455;BME280;61690;51.824;6.306;2023-04-07T10:04:33;101588.22;;;17.57;48.74
73455;BME280;61690;51.824;6.306;2023-04-07T10:06:59;101589.84;;;17.60;48.29
73455;BME280;61690;51.824;6.306;2023-04-07T10:09:28;101590.72;;;17.60;48.40
73455;BME280;61690;51.824;6.306;2023-04-07T10:11:55;101587.13;;;17.61;48.55
73455;BME280;61690;51.824;6.306;2023-04-07T10:14:26;101593.50;;;17.57;48.54
73455;BME280;61690;51.824;6.306;2023-04-07T10:16:52;101596.19;;;17.56;48.34
73455;BME280;61690;51.824;6.306;2023-04-07T10:19:20;101597.97;;;17.55;48.68
73455;BME280;61690;51.824;6.306;2023-04-07T10:21:47;101600.59;;;17.55;48.35
73455;BME280;61690;51.824;6.306;2023-04-07T10:24:30;101600.59;;;17.55;47.97
73455;BME280;61690;51.824;6.306;2023-04-07T10:27:03;101603.16;;;17.57;48.30
73455;BME280;61690;51.824;6.306;2023-04-07T10:29:38;101602.47;;;17.53;48.43
73455;BME280;61690;51.824;6.306;2023-04-07T10:32:07;101604.91;;;17.56;48.15
73455;BME280;61690;51.824;6.306;2023-04-07T10:37:21;101609.34;;;17.56;48.03
73455;BME280;61690;51.824;6.306;2023-04-07T10:39:48;101608.50;;;17.55;48.26
73455;BME280;61690;51.824;6.306;2023-04-07T10:42:54;101604.16;;;17.54;48.29
73455;BME280;61690;51.824;6.306;2023-04-07T10:48:16;101607.72;;;17.53;48.67
73455;BME280;61690;51.824;6.306;2023-04-07T10:50:44;101611.13;;;17.55;48.35
73455;BME280;61690;51.824;6.306;2023-04-07T10:53:10;101608.56;;;17.54;48.13
73455;BME280;61690;51.824;6.306;2023-04-07T10:55:37;101608.63;;;17.52;48.47
73455;BME280;61690;51.824;6.306;2023-04-07T11:03:30;101620.94;;;17.52;48.37
73455;BME280;61690;51.824;6.306;2023-04-07T11:06:12;101623.50;;;17.53;48.17
73455;BME280;61690;51.824;6.306;2023-04-07T11:08:42;101619.16;;;17.52;48.80
73455;BME280;61690;51.824;6.306;2023-04-07T11:11:10;101619.72;;;17.59;48.94
73455;BME280;61690;51.824;6.306;2023-04-07T11:13:43;101630.63;;;17.51;49.29
73455;BME280;61690;51.824;6.306;2023-04-07T11:16:10;101628.91;;;17.50;48.78
73455;BME280;61690;51.824;6.306;2023-04-07T11:18:36;101635.88;;;17.51;48.79
73455;BME280;61690;51.824;6.306;2023-04-07T11:21:02;101635.88;;;17.51;49.09
73455;BME280;61690;51.824;6.306;2023-04-07T11:23:29;101634.09;;;17.52;48.79
73455;BME280;61690;51.824;6.306;2023-04-07T11:26:02;101635.88;;;17.51;48.63
73455;BME280;61690;51.824;6.306;2023-04-07T11:28:31;101633.25;;;17.51;48.67
73455;BME280;61690;51.824;6.306;2023-04-07T11:30:56;101630.44;;;17.54;48.48
73455;BME280;61690;51.824;6.306;2023-04-07T11:33:28;101635.72;;;17.54;48.80
73455;BME280;61690;51.824;6.306;2023-04-07T11:36:00;101640.97;;;17.54;48.72
73455;BME280;61690;51.824;6.306;2023-04-07T11:38:29;101643.59;;;17.54;48.47
73455;BME280;61690;51.824;6.306;2023-04-07T11:41:12;101646.25;;;17.54;48.63
73455;BME280;61690;51.824;6.306;2023-04-07T11:43:37;101640.13;;;17.54;48.16
73455;BME280;61690;51.824;6.306;2023-04-07T11:46:10;101643.53;;;17.56;48.28
73455;BME280;61690;51.824;6.306;2023-04-07T11:48:38;101642.00;;;17.52;48.55
73455;BME280;61690;51.824;6.306;2023-04-07T11:51:04;101643.78;;;17.51;48.32
73455;BME280;61690;51.824;6.306;2023-04-07T11:53:31;101646.72;;;17.45;48.35
73455;BME280;61690;51.824;6.306;2023-04-07T11:56:03;101648.25;;;17.49;48.44
73455;BME280;61690;51.824;6.306;2023-04-07T11:58:32;101649.75;;;17.55;48.78
73455;BME280;61690;51.824;6.306;2023-04-07T12:01:00;101644.25;;;17.59;49.05
73455;BME280;61690;51.824;6.306;2023-04-07T12:03:36;101649.25;;;17.64;49.13
73455;BME280;61690;51.824;6.306;2023-04-07T12:06:02;101649.25;;;17.64;48.78
73455;BME280;61690;51.824;6.306;2023-04-07T12:08:39;101654.38;;;17.67;49.39
73455;BME280;61690;51.824;6.306;2023-04-07T12:11:05;101662.34;;;17.66;49.36
73455;BME280;61690;51.824;6.306;2023-04-07T12:13:31;101661.25;;;17.70;49.32
73455;BME280;61690;51.824;6.306;2023-04-07T12:16:00;101661.13;;;17.73;48.75
73455;BME280;61690;51.824;6.306;2023-04-07T12:18:28;101660.28;;;17.72;48.89
73455;BME280;61690;51.824;6.306;2023-04-07T12:20:54;101662.66;;;17.77;48.94
73455;BME280;61690;51.824;6.306;2023-04-07T12:23:21;101667.22;;;17.73;49.22
73455;BME280;61690;51.824;6.306;2023-04-07T12:25:46;101668.00;;;17.75;49.06
73455;BME280;61690;51.824;6.306;2023-04-07T12:28:12;101668.94;;;17.74;49.34
73455;BME280;61690;51.824;6.306;2023-04-07T12:30:48;101679.41;;;17.76;49.08
73455;BME280;61690;51.824;6.306;2023-04-07T12:33:16;101681.88;;;17.79;49.51
73455;BME280;61690;51.824;6.306;2023-04-07T12:35:42;101681.88;;;17.79;49.13
73455;BME280;61690;51.824;6.306;2023-04-07T12:38:09;101688.06;;;17.78;49.14
73455;BME280;61690;51.824;6.306;2023-04-07T12:40:34;101691.69;;;17.75;48.89
73455;BME280;61690;51.824;6.306;2023-04-07T12:43:01;101686.34;;;17.77;48.91
73455;BME280;61690;51.824;6.306;2023-04-07T12:45:26;101686.22;;;17.80;48.44
73455;BME280;61690;51.824;6.306;2023-04-07T12:47:55;101694.41;;;17.74;49.07
73455;BME280;61690;51.824;6.306;2023-04-07T12:50:20;101690.38;;;17.67;48.93
73455;BME280;61690;51.824;6.306;2023-04-07T12:52:47;101689.59;;;17.64;48.78
73455;BME280;61690;51.824;6.306;2023-04-07T12:55:14;101695.66;;;17.67;48.55
73455;BME280;61690;51.824;6.306;2023-04-07T12:57:41;101697.44;;;17.66;48.86
73455;BME280;61690;51.824;6.306;2023-04-07T13:00:07;101698.41;;;17.63;48.64
73455;BME280;61690;51.824;6.306;2023-04-07T13:02:32;101699.97;;;17.68;48.92
73455;BME280;61690;51.824;6.306;2023-04-07T13:05:00;101709.50;;;17.70;48.52